Time;durP1;ratioP1;P1;durP2;ratioP2;P2;SDS_P1;SDS_P2;PMS_P1;PMS_P2;Temp;Humidity;BMP_temperature;BMP_pressure;BME280_temperature;BME280_humidity;BME280_pressure;Samples;Min_cycle;Max_cycle;Signal;HPM_P1;HPM_P2
2022/03/11 00:01:42;;;;;;;16.88;8.82;;;10.90;45.90;;;;;;4994035;28;20041;-79
2022/03/11 00:04:08;;;;;;;13.77;8.60;;;10.80;46.10;;;;;;4993115;28;20108;-78
2022/03/11 00:06:35;;;;;;;15.02;8.20;;;10.80;46.40;;;;;;4993696;28;20030;-79
2022/03/11 00:09:01;;;;;;;15.20;9.05;;;10.70;46.40;;;;;;4993035;28;20073;-78
2022/03/11 00:11:27;;;;;;;12.27;8.50;;;10.70;47.20;;;;;;4992599;28;20022;-77
2022/03/11 00:13:52;;;;;;;14.52;8.38;;;10.70;46.70;;;;;;4992646;28;20034;-77
2022/03/11 00:16:19;;;;;;;14.63;8.75;;;10.70;46.70;;;;;;4992650;28;20025;-77
2022/03/11 00:18:45;;;;;;;15.45;8.80;;;10.70;46.80;;;;;;4992541;28;20034;-77
2022/03/11 00:21:13;;;;;;;14.07;9.65;;;10.70;47.10;;;;;;4992163;28;20022;-77
2022/03/11 00:23:40;;;;;;;15.32;9.55;;;10.60;47.30;;;;;;4990477;28;20432;-77
2022/03/11 00:26:06;;;;;;;16.17;9.45;;;10.60;47.40;;;;;;4992760;28;20030;-77
2022/03/11 00:28:32;;;;;;;14.75;9.02;;;10.60;47.60;;;;;;4992362;28;20125;-77
2022/03/11 00:30:58;;;;;;;15.57;9.20;;;10.40;47.70;;;;;;4992642;28;20105;-77
2022/03/11 00:33:24;;;;;;;19.38;10.68;;;10.40;47.80;;;;;;4991824;28;20026;-77
2022/03/11 00:35:53;;;;;;;17.02;9.52;;;10.40;48.10;;;;;;4996261;28;20026;-77
2022/03/11 00:38:19;;;;;;;16.00;10.20;;;10.40;48.30;;;;;;4995835;28;20034;-77
2022/03/11 00:40:44;;;;;;;13.25;9.50;;;10.50;48.20;;;;;;5000804;28;20038;-78
2022/03/11 00:43:10;;;;;;;16.30;9.70;;;10.50;48.40;;;;;;5005116;28;20030;-78
2022/03/11 00:45:36;;;;;;;17.88;9.75;;;10.40;49.10;;;;;;5000872;28;20026;-78
2022/03/11 00:48:02;;;;;;;16.30;9.60;;;10.40;48.60;;;;;;5011521;28;20046;-78
2022/03/11 00:50:27;;;;;;;17.92;9.63;;;10.30;48.90;;;;;;5007741;28;20034;-78
2022/03/11 00:52:53;;;;;;;17.15;10.13;;;10.30;49.00;;;;;;5003424;28;20109;-77
2022/03/11 00:55:18;;;;;;;18.08;10.40;;;10.20;49.10;;;;;;4998969;28;20026;-78
2022/03/11 00:57:44;;;;;;;18.70;10.18;;;10.20;49.30;;;;;;5010669;28;20022;-77
2022/03/11 01:00:10;;;;;;;16.20;10.40;;;10.10;49.60;;;;;;5009733;28;20442;-78
2022/03/11 01:02:38;;;;;;;19.33;11.23;;;10.10;49.80;;;;;;4997427;28;20121;-78
2022/03/11 01:05:05;;;;;;;17.17;10.18;;;10.10;49.80;;;;;;5002238;28;20037;-78
2022/03/11 01:07:31;;;;;;;15.10;10.68;;;10.00;50.00;;;;;;5005562;28;20080;-78
2022/03/11 01:09:57;;;;;;;15.80;10.60;;;10.00;50.20;;;;;;5002449;28;20089;-78
2022/03/11 01:12:23;;;;;;;18.75;10.90;;;10.00;50.10;;;;;;5012180;28;20026;-78
2022/03/11 01:14:49;;;;;;;17.58;11.05;;;10.00;50.30;;;;;;5013851;28;20088;-78
2022/03/11 01:17:15;;;;;;;19.08;10.68;;;9.90;50.60;;;;;;5001118;28;20023;-77
2022/03/11 01:19:41;;;;;;;15.57;10.07;;;9.80;50.70;;;;;;4998039;28;20430;-78
2022/03/11 01:22:06;;;;;;;16.40;10.32;;;9.80;50.80;;;;;;5001883;28;20030;-78
2022/03/11 01:24:32;;;;;;;19.20;10.75;;;9.80;50.90;;;;;;5000751;28;20110;-78
2022/03/11 01:26:59;;;;;;;16.85;11.40;;;9.70;51.10;;;;;;5002945;28;20038;-78
2022/03/11 01:29:27;;;;;;;15.88;10.43;;;9.60;51.50;;;;;;4995442;28;20039;-78
2022/03/11 01:31:53;;;;;;;15.27;10.07;;;9.60;51.50;;;;;;4995257;28;20026;-78
2022/03/11 01:34:20;;;;;;;18.52;10.38;;;9.70;51.40;;;;;;4995214;28;20042;-77
2022/03/11 01:36:48;;;;;;;19.70;10.95;;;9.60;51.40;;;;;;4994814;28;20031;-77
2022/03/11 01:39:14;;;;;;;17.63;10.75;;;9.60;51.60;;;;;;4998192;28;20042;-78
2022/03/11 01:41:39;;;;;;;14.73;9.82;;;9.50;51.80;;;;;;5014753;28;20173;-78
2022/03/11 01:44:07;;;;;;;14.82;9.88;;;9.50;51.70;;;;;;5014670;28;20137;-78
2022/03/11 01:46:34;;;;;;;19.05;10.60;;;9.60;51.70;;;;;;5014295;28;20029;-78
2022/03/11 01:49:01;;;;;;;16.42;10.00;;;9.60;51.80;;;;;;5015040;28;20117;-77
2022/03/11 01:51:28;;;;;;;17.02;10.38;;;9.60;51.90;;;;;;5014896;28;20381;-77
2022/03/11 01:53:55;;;;;;;18.65;10.88;;;9.50;52.10;;;;;;5014540;28;20370;-77
2022/03/11 01:56:22;;;;;;;16.55;10.98;;;9.50;52.20;;;;;;5011544;28;20028;-77
2022/03/11 01:58:50;;;;;;;16.45;10.60;;;9.40;52.20;;;;;;5012620;28;20038;-77
2022/03/11 02:01:16;;;;;;;15.52;10.35;;;9.50;52.20;;;;;;5014426;28;20032;-78
2022/03/11 02:03:42;;;;;;;16.60;11.02;;;9.50;52.30;;;;;;5014181;28;20076;-78
2022/03/11 02:06:08;;;;;;;16.75;10.73;;;9.40;52.40;;;;;;5013905;28;20030;-78
2022/03/11 02:08:35;;;;;;;17.17;10.45;;;9.40;52.70;;;;;;5014216;28;20038;-80
2022/03/11 02:11:02;;;;;;;15.27;10.50;;;9.40;52.80;;;;;;5014912;28;20481;-80
2022/03/11 02:13:27;;;;;;;15.20;9.85;;;9.40;52.90;;;;;;5014638;28;20057;-79
2022/03/11 02:15:53;;;;;;;15.00;10.45;;;9.30;52.80;;;;;;5014266;28;20046;-80
2022/03/11 02:18:19;;;;;;;20.58;10.35;;;9.30;52.80;;;;;;5013815;28;20116;-79
2022/03/11 02:20:48;;;;;;;15.88;10.10;;;9.20;53.40;;;;;;5014319;28;20018;-80
2022/03/11 02:23:18;;;;;;;17.65;10.13;;;9.10;53.20;;;;;;5014212;28;20448;-79
2022/03/11 02:25:43;;;;;;;15.60;9.70;;;9.10;53.60;;;;;;5013966;28;20517;-77
2022/03/11 02:28:09;;;;;;;16.42;10.25;;;9.10;53.60;;;;;;5013609;28;20137;-77
2022/03/11 02:30:35;;;;;;;17.98;10.00;;;9.10;53.80;;;;;;5013644;28;20022;-77
2022/03/11 02:33:00;;;;;;;15.95;10.32;;;9.00;54.10;;;;;;5013387;28;20436;-78
2022/03/11 02:35:26;;;;;;;15.02;9.98;;;9.00;54.20;;;;;;5014090;28;20104;-77
2022/03/11 02:37:51;;;;;;;14.70;10.00;;;8.90;54.10;;;;;;5013328;28;20021;-78
2022/03/11 02:40:17;;;;;;;15.82;9.43;;;9.00;54.30;;;;;;5001896;28;20057;-78
2022/03/11 02:42:43;;;;;;;12.80;9.55;;;8.80;54.50;;;;;;4993757;28;20023;-77
2022/03/11 02:45:09;;;;;;;15.95;9.85;;;8.70;54.60;;;;;;4993667;28;20041;-77
2022/03/11 02:47:34;;;;;;;14.80;9.07;;;8.80;54.60;;;;;;4993376;28;20050;-78
2022/03/11 02:50:00;;;;;;;13.77;10.00;;;8.80;55.20;;;;;;4993851;28;20031;-78
2022/03/11 02:52:26;;;;;;;15.48;9.68;;;8.70;54.70;;;;;;4994122;28;20389;-78
2022/03/11 02:54:52;;;;;;;15.80;10.23;;;8.70;54.60;;;;;;4993548;28;20473;-78
2022/03/11 02:57:17;;;;;;;16.98;9.95;;;8.70;54.80;;;;;;4992686;28;20038;-78
2022/03/11 02:59:44;;;;;;;16.20;10.40;;;8.60;54.90;;;;;;4993649;28;20015;-78
2022/03/11 03:02:10;;;;;;;15.52;10.15;;;8.60;55.10;;;;;;4993566;28;20031;-78
2022/03/11 03:04:35;;;;;;;18.50;9.95;;;8.60;55.00;;;;;;4993751;28;20450;-78
2022/03/11 03:07:03;;;;;;;16.73;9.75;;;8.60;55.00;;;;;;4993497;28;20065;-78
2022/03/11 03:09:29;;;;;;;14.35;9.65;;;8.60;54.90;;;;;;4993399;28;20038;-77
2022/03/11 03:11:54;;;;;;;15.15;9.80;;;8.60;55.00;;;;;;4993290;28;20034;-77
2022/03/11 03:14:20;;;;;;;15.40;10.48;;;8.60;55.30;;;;;;4993877;28;20084;-77
2022/03/11 03:16:46;;;;;;;17.52;9.88;;;8.50;55.10;;;;;;4993406;28;20030;-77
2022/03/11 03:19:11;;;;;;;13.73;9.15;;;8.50;55.30;;;;;;4993315;28;20062;-76
2022/03/11 03:21:37;;;;;;;16.42;10.10;;;8.50;55.30;;;;;;4993092;28;20553;-77
2022/03/11 03:24:02;;;;;;;16.65;9.85;;;8.50;55.40;;;;;;4993308;28;20034;-77
2022/03/11 03:26:28;;;;;;;14.02;9.25;;;8.50;55.50;;;;;;4993250;28;20029;-77
2022/03/11 03:28:54;;;;;;;17.15;10.18;;;8.40;55.80;;;;;;4993008;28;20061;-78
2022/03/11 03:31:21;;;;;;;13.25;9.55;;;8.40;55.90;;;;;;4993085;28;20133;-78
2022/03/11 03:33:47;;;;;;;15.38;9.70;;;8.40;56.00;;;;;;4993016;28;20035;-78
2022/03/11 03:36:13;;;;;;;14.57;9.18;;;8.40;55.90;;;;;;4993046;28;20030;-78
2022/03/11 03:38:39;;;;;;;14.27;10.02;;;8.40;56.10;;;;;;4993165;28;20022;-78
2022/03/11 03:41:05;;;;;;;12.88;9.30;;;8.30;56.00;;;;;;4992603;28;20046;-78
2022/03/11 03:43:30;;;;;;;17.45;9.43;;;8.30;56.00;;;;;;4993064;28;20083;-78
2022/03/11 03:45:56;;;;;;;16.73;9.80;;;8.30;56.20;;;;;;4993007;28;20030;-78
2022/03/11 03:48:27;;;;;;;13.77;9.27;;;8.20;56.10;;;;;;4992661;28;20070;-79
2022/03/11 03:50:53;;;;;;;15.25;9.50;;;8.20;56.40;;;;;;4992696;28;20478;-77
2022/03/11 03:53:18;;;;;;;14.10;9.48;;;8.30;56.40;;;;;;4992459;28;20037;-77
2022/03/11 03:55:44;;;;;;;13.73;9.85;;;8.20;56.40;;;;;;4993058;28;20026;-78
2022/03/11 03:58:10;;;;;;;16.13;9.98;;;8.20;56.40;;;;;;4992190;28;20110;-78
2022/03/11 04:00:35;;;;;;;16.60;10.35;;;8.20;56.60;;;;;;4992994;28;20030;-77
2022/03/11 04:03:01;;;;;;;17.73;10.18;;;8.20;56.50;;;;;;4992049;28;20497;-77
2022/03/11 04:05:26;;;;;;;18.65;9.25;;;8.10;56.60;;;;;;4992723;28;20018;-77
2022/03/11 04:07:52;;;;;;;13.82;9.85;;;8.10;56.70;;;;;;4992257;28;20027;-77
2022/03/11 04:10:18;;;;;;;15.93;9.00;;;8.10;56.70;;;;;;4993268;28;20057;-77
2022/03/11 04:12:44;;;;;;;14.98;10.02;;;8.20;56.60;;;;;;4992004;28;20031;-77
2022/03/11 04:15:10;;;;;;;14.77;10.10;;;8.20;56.40;;;;;;4993636;28;20034;-76
2022/03/11 04:17:38;;;;;;;14.68;9.40;;;8.20;56.30;;;;;;4993254;28;20459;-77
2022/03/11 04:20:05;;;;;;;12.63;9.05;;;8.20;56.40;;;;;;4992625;28;20363;-77
2022/03/11 04:22:30;;;;;;;18.15;9.23;;;8.30;56.30;;;;;;4992272;28;20038;-77
2022/03/11 04:24:56;;;;;;;17.30;9.27;;;8.20;56.60;;;;;;4992542;28;20030;-78
2022/03/11 04:27:22;;;;;;;13.65;9.18;;;8.20;56.50;;;;;;4992557;28;20041;-78
2022/03/11 04:29:47;;;;;;;14.90;9.80;;;8.10;56.60;;;;;;4992220;28;20128;-78
2022/03/11 04:32:13;;;;;;;15.32;8.65;;;8.10;56.70;;;;;;4992559;28;20026;-76
2022/03/11 04:34:38;;;;;;;16.52;9.40;;;8.10;56.70;;;;;;4992544;28;20031;-77
2022/03/11 04:37:04;;;;;;;14.75;9.82;;;8.00;56.70;;;;;;4992087;28;20382;-77
2022/03/11 04:39:30;;;;;;;15.48;9.65;;;8.10;56.80;;;;;;4997178;28;20030;-77
2022/03/11 04:41:56;;;;;;;19.52;9.30;;;8.10;56.90;;;;;;4999996;28;20405;-76
2022/03/11 04:44:22;;;;;;;13.82;9.20;;;8.10;56.80;;;;;;4999998;28;20022;-77
2022/03/11 04:46:48;;;;;;;15.25;9.73;;;8.00;56.90;;;;;;5002681;28;20113;-77
2022/03/11 04:49:14;;;;;;;15.00;9.07;;;8.00;56.90;;;;;;5009873;28;20037;-77
2022/03/11 04:51:39;;;;;;;14.75;9.13;;;8.00;57.00;;;;;;5005663;28;20025;-77
2022/03/11 04:54:06;;;;;;;15.70;9.50;;;7.90;56.80;;;;;;5010151;28;20504;-77
2022/03/11 04:56:32;;;;;;;15.13;9.02;;;7.90;57.10;;;;;;5000571;28;20030;-77
2022/03/11 04:58:58;;;;;;;14.25;8.80;;;7.90;56.90;;;;;;5003852;28;20030;-76
2022/03/11 05:01:24;;;;;;;13.60;9.32;;;7.90;56.80;;;;;;5005396;28;20109;-76
2022/03/11 05:03:50;;;;;;;18.40;9.85;;;7.90;56.90;;;;;;4998813;28;20113;-77
2022/03/11 05:06:16;;;;;;;14.55;9.32;;;7.90;57.00;;;;;;5004222;28;20381;-77
2022/03/11 05:08:41;;;;;;;16.60;9.25;;;7.90;57.10;;;;;;5010162;28;20547;-77
2022/03/11 05:11:07;;;;;;;15.48;9.68;;;7.80;57.70;;;;;;5001385;28;20125;-77
2022/03/11 05:13:33;;;;;;;17.10;10.07;;;7.70;57.10;;;;;;5008609;28;20022;-76
2022/03/11 05:15:59;;;;;;;14.82;8.90;;;7.70;57.20;;;;;;4997719;28;20619;-76
2022/03/11 05:18:25;;;;;;;15.63;9.45;;;7.70;57.40;;;;;;4999560;28;20375;-77
2022/03/11 05:20:51;;;;;;;15.77;9.27;;;7.80;57.30;;;;;;5001321;28;20028;-78
2022/03/11 05:23:16;;;;;;;14.63;9.07;;;7.70;57.50;;;;;;5010076;28;20497;-77
2022/03/11 05:25:42;;;;;;;14.30;9.27;;;7.70;57.60;;;;;;5008608;28;20052;-83
2022/03/11 05:28:08;;;;;;;14.50;9.35;;;7.70;57.50;;;;;;5001305;28;20036;-79
2022/03/11 05:30:35;;;;;;;16.38;9.23;;;7.70;57.40;;;;;;4998445;28;20104;-77
2022/03/11 05:33:01;;;;;;;13.73;9.18;;;7.70;57.30;;;;;;5005958;28;20485;-77
2022/03/11 05:35:26;;;;;;;17.80;9.25;;;7.70;57.30;;;;;;5006248;28;20070;-78
2022/03/11 05:37:52;;;;;;;22.23;10.65;;;7.60;57.30;;;;;;5002587;28;20018;-78
2022/03/11 05:40:18;;;;;;;13.82;8.77;;;7.70;57.20;;;;;;4995927;28;20050;-77
2022/03/11 05:42:43;;;;;;;14.55;9.32;;;7.80;57.20;;;;;;4994795;28;20070;-78
2022/03/11 05:45:09;;;;;;;14.88;9.68;;;7.70;57.10;;;;;;4995412;28;20034;-77
2022/03/11 05:47:35;;;;;;;14.85;9.27;;;7.80;57.10;;;;;;4994726;28;20470;-81
2022/03/11 05:50:01;;;;;;;14.40;9.30;;;7.70;57.20;;;;;;4995708;28;20093;-82
2022/03/11 05:52:27;;;;;;;15.30;8.98;;;7.70;57.30;;;;;;4994821;28;20109;-82
2022/03/11 05:54:53;;;;;;;15.95;9.30;;;7.70;57.40;;;;;;4994683;28;20038;-79
2022/03/11 05:57:18;;;;;;;16.88;9.45;;;7.70;57.40;;;;;;4994556;28;20026;-79
2022/03/11 05:59:44;;;;;;;13.65;8.63;;;7.70;57.70;;;;;;4994988;28;20528;-79
2022/03/11 06:02:09;;;;;;;15.02;8.80;;;7.60;57.50;;;;;;4994355;28;20030;-77
2022/03/11 06:04:37;;;;;;;18.00;8.65;;;7.70;57.50;;;;;;4993582;28;20033;-80
2022/03/11 06:07:03;;;;;;;16.75;9.48;;;7.70;57.70;;;;;;4993786;28;20030;-82
2022/03/11 06:09:29;;;;;;;13.88;8.95;;;7.70;58.20;;;;;;4994396;28;20437;-81
2022/03/11 06:11:54;;;;;;;15.70;9.30;;;7.70;58.10;;;;;;4993737;28;20029;-81
2022/03/11 06:14:20;;;;;;;13.98;9.38;;;7.80;57.90;;;;;;4994356;28;20529;-79
2022/03/11 06:16:46;;;;;;;13.75;8.68;;;7.80;58.30;;;;;;4994167;28;20077;-79
2022/03/11 06:19:11;;;;;;;14.10;9.00;;;7.80;58.10;;;;;;4994036;28;20386;-79
2022/03/11 06:21:37;;;;;;;15.70;9.43;;;7.80;57.90;;;;;;4994356;28;20057;-79
2022/03/11 06:24:03;;;;;;;13.57;8.90;;;7.90;58.00;;;;;;4993872;28;20038;-78
2022/03/11 06:26:28;;;;;;;16.50;8.50;;;7.90;58.00;;;;;;4993656;28;20026;-78
2022/03/11 06:28:54;;;;;;;16.58;8.63;;;7.90;57.70;;;;;;4993201;28;20053;-79
2022/03/11 06:31:20;;;;;;;14.65;8.60;;;7.80;57.30;;;;;;4993504;28;20070;-79
2022/03/11 06:33:45;;;;;;;15.40;9.27;;;7.90;57.60;;;;;;4993586;28;20062;-79
2022/03/11 06:36:11;;;;;;;14.45;9.05;;;7.90;57.30;;;;;;4993834;28;20144;-80
2022/03/11 06:38:43;;;;;;;17.33;9.20;;;7.80;57.60;;;;;;4994186;28;20054;-80
2022/03/11 06:41:08;;;;;;;17.35;10.18;;;7.80;57.90;;;;;;4993406;28;20810;-82
2022/03/11 06:43:34;;;;;;;21.20;10.20;;;7.80;57.50;;;;;;4994223;28;20042;-80
2022/03/11 06:46:00;;;;;;;20.15;10.20;;;7.80;57.60;;;;;;4995098;28;20355;-79
2022/03/11 06:48:25;;;;;;;18.77;9.25;;;7.80;57.70;;;;;;4994795;28;20474;-84
2022/03/11 06:50:52;;;;;;;17.95;9.27;;;7.80;57.80;;;;;;4993638;28;20165;-84
2022/03/11 06:53:25;;;;;;;17.55;9.68;;;7.90;57.80;;;;;;4991164;28;20102;-84
2022/03/11 06:55:52;;;;;;;15.63;8.93;;;7.90;57.50;;;;;;4993799;28;20030;-84
2022/03/11 06:58:18;;;;;;;12.82;9.00;;;7.90;57.60;;;;;;4993018;28;20026;-83
2022/03/11 07:00:44;;;;;;;15.45;9.38;;;8.00;57.60;;;;;;4993547;28;20034;-84
2022/03/11 07:03:09;;;;;;;21.45;9.70;;;8.10;57.40;;;;;;4992823;28;20041;-84
2022/03/11 07:05:35;;;;;;;16.08;8.90;;;8.10;57.30;;;;;;4993810;28;20084;-84
2022/03/11 07:08:00;;;;;;;19.23;9.43;;;8.20;57.20;;;;;;4990044;28;20473;-86
2022/03/11 07:10:26;;;;;;;18.50;9.68;;;8.20;56.50;;;;;;4993659;28;20033;-88
2022/03/11 07:12:52;;;;;;;14.73;9.93;;;8.30;56.60;;;;;;4992922;28;20093;-86
2022/03/11 07:15:17;;;;;;;18.48;10.48;;;8.20;56.40;;;;;;4993047;28;20441;-87
2022/03/11 07:17:43;;;;;;;19.23;9.98;;;8.20;56.90;;;;;;4993768;28;20057;-86
2022/03/11 07:20:09;;;;;;;22.38;10.20;;;8.10;56.80;;;;;;4993868;28;20121;-86
2022/03/11 07:22:35;;;;;;;15.52;8.93;;;8.10;56.90;;;;;;4995176;28;20022;-88
2022/03/11 07:25:01;;;;;;;16.95;10.18;;;8.20;56.80;;;;;;4993781;28;20041;-87
2022/03/11 07:27:27;;;;;;;18.25;10.25;;;8.10;56.70;;;;;;4993639;28;20078;-87
2022/03/11 07:29:54;;;;;;;19.48;10.52;;;8.20;56.50;;;;;;4993211;28;20401;-86
2022/03/11 07:32:20;;;;;;;17.83;9.80;;;8.30;56.40;;;;;;4993105;28;20085;-82
2022/03/11 07:34:45;;;;;;;18.00;10.13;;;8.40;56.50;;;;;;4993493;28;20038;-85
2022/03/11 07:37:12;;;;;;;18.42;9.77;;;8.50;56.00;;;;;;4993040;28;20432;-87
2022/03/11 07:39:41;;;;;;;18.88;10.68;;;8.50;56.00;;;;;;4993182;28;20039;-86
2022/03/11 07:42:07;;;;;;;19.23;10.48;;;8.60;56.00;;;;;;5001372;28;20173;-82
2022/03/11 07:44:33;;;;;;;22.90;10.52;;;8.70;55.70;;;;;;4995989;28;20037;-83
2022/03/11 07:46:59;;;;;;;17.65;10.20;;;8.80;55.60;;;;;;5003653;28;20049;-84
2022/03/11 07:49:25;;;;;;;21.23;10.45;;;8.90;56.00;;;;;;5003666;28;20033;-85
2022/03/11 07:51:51;;;;;;;15.70;10.07;;;9.00;55.40;;;;;;5001875;28;20177;-85
2022/03/11 07:54:16;;;;;;;15.90;10.45;;;9.10;55.20;;;;;;5002726;28;20101;-81
2022/03/11 07:56:42;;;;;;;18.27;10.07;;;9.20;55.10;;;;;;4999959;28;20034;-83
2022/03/11 07:59:08;;;;;;;19.92;10.95;;;9.30;55.40;;;;;;4994327;28;20022;-83
2022/03/11 08:01:33;;;;;;;18.52;10.27;;;9.30;54.60;;;;;;4993172;28;20041;-86
2022/03/11 08:03:59;;;;;;;22.33;11.82;;;9.40;54.90;;;;;;4989660;28;20438;-86
2022/03/11 08:06:25;;;;;;;19.80;11.27;;;9.40;54.60;;;;;;4974857;28;20031;-86
2022/03/11 08:08:50;;;;;;;17.63;10.32;;;9.50;54.70;;;;;;4974558;28;20085;-86
2022/03/11 08:11:16;;;;;;;19.02;11.45;;;9.40;54.60;;;;;;4974562;28;20566;-86
2022/03/11 08:13:42;;;;;;;20.48;10.57;;;9.60;54.60;;;;;;4974021;28;20498;-86
2022/03/11 08:16:08;;;;;;;18.33;11.25;;;9.70;54.40;;;;;;4978590;28;20031;-87
2022/03/11 08:18:35;;;;;;;20.38;11.70;;;9.80;54.20;;;;;;4993935;28;20030;-86
2022/03/11 08:21:01;;;;;;;17.20;11.10;;;10.00;53.80;;;;;;4993655;28;20048;-86
2022/03/11 08:23:27;;;;;;;19.98;11.60;;;10.10;53.60;;;;;;4993645;28;20478;-84
2022/03/11 08:25:53;;;;;;;20.48;11.77;;;10.30;53.00;;;;;;4993672;28;20035;-85
2022/03/11 08:28:21;;;;;;;18.30;12.23;;;10.30;52.80;;;;;;4993592;28;20026;-85
2022/03/11 08:30:47;;;;;;;19.75;11.75;;;10.40;52.50;;;;;;4993857;28;20069;-85
2022/03/11 08:33:14;;;;;;;17.77;11.90;;;10.40;52.70;;;;;;4993834;28;20537;-84
2022/03/11 08:35:39;;;;;;;21.15;12.18;;;10.60;52.40;;;;;;4993178;28;20037;-84
2022/03/11 08:38:06;;;;;;;21.92;12.63;;;10.50;51.90;;;;;;4993715;28;20023;-80
2022/03/11 08:40:33;;;;;;;19.92;11.88;;;10.50;52.10;;;;;;4992946;28;20129;-82
2022/03/11 08:42:59;;;;;;;21.02;12.63;;;10.60;51.80;;;;;;4993308;28;20030;-83
2022/03/11 08:45:24;;;;;;;22.02;12.30;;;10.60;52.20;;;;;;4993222;28;20042;-83
2022/03/11 08:47:51;;;;;;;19.63;11.93;;;10.60;52.00;;;;;;4993279;28;20113;-80
2022/03/11 08:50:18;;;;;;;21.00;12.50;;;10.60;52.10;;;;;;4993764;28;20061;-82
2022/03/11 08:52:44;;;;;;;22.55;12.55;;;10.80;51.90;;;;;;4993561;28;20022;-82
2022/03/11 08:55:11;;;;;;;21.00;12.48;;;10.90;51.20;;;;;;4994187;28;20371;-83
2022/03/11 08:57:37;;;;;;;18.15;12.48;;;11.00;50.80;;;;;;4997068;28;20026;-84
2022/03/11 09:00:08;;;;;;;21.83;13.00;;;11.10;50.80;;;;;;4997250;28;20493;-84
2022/03/11 09:02:37;;;;;;;20.08;12.68;;;11.20;51.10;;;;;;4997144;28;20050;-80
2022/03/11 09:05:04;;;;;;;17.30;11.85;;;11.30;51.20;;;;;;4979562;28;20034;-82
2022/03/11 09:07:29;;;;;;;22.30;13.55;;;11.50;51.50;;;;;;4996203;28;20026;-83
2022/03/11 09:09:55;;;;;;;21.23;12.65;;;11.60;51.10;;;;;;4992745;28;20039;-83
2022/03/11 09:12:21;;;;;;;21.98;13.25;;;11.70;50.80;;;;;;4978866;28;20030;-83
2022/03/11 09:14:47;;;;;;;22.05;12.50;;;11.80;49.80;;;;;;4977202;28;20034;-84
2022/03/11 09:17:13;;;;;;;26.85;13.30;;;11.80;50.30;;;;;;4977439;28;20030;-83
2022/03/11 09:19:39;;;;;;;19.38;11.88;;;11.90;49.60;;;;;;4977470;28;20023;-82
2022/03/11 09:22:05;;;;;;;21.33;12.88;;;11.70;49.50;;;;;;4977362;28;20133;-86
2022/03/11 09:24:31;;;;;;;19.58;12.93;;;11.80;49.50;;;;;;4987038;28;20578;-86
2022/03/11 09:26:58;;;;;;;25.70;13.65;;;11.90;50.30;;;;;;4986436;28;20035;-82
2022/03/11 09:29:28;;;;;;;24.00;13.00;;;12.00;50.00;;;;;;4994957;28;20035;-83
2022/03/11 09:31:54;;;;;;;23.30;13.30;;;12.10;49.40;;;;;;4995399;28;20041;-82
2022/03/11 09:34:26;;;;;;;19.40;12.77;;;12.10;49.80;;;;;;4994503;28;20105;-82
2022/03/11 09:36:52;;;;;;;20.67;13.05;;;12.20;49.50;;;;;;4994904;28;20365;-81
2022/03/11 09:39:19;;;;;;;25.73;13.85;;;12.30;49.90;;;;;;4997555;28;20133;-81
2022/03/11 09:41:46;;;;;;;19.35;12.75;;;12.40;49.30;;;;;;4996883;28;20045;-81
2022/03/11 09:44:16;;;;;;;19.98;12.88;;;12.50;48.80;;;;;;5007441;28;20034;-87
2022/03/11 09:46:42;;;;;;;24.23;13.23;;;12.50;48.60;;;;;;5005440;28;20040;-86
2022/03/11 09:49:11;;;;;;;21.73;13.90;;;12.60;48.60;;;;;;5001903;28;20030;-82
2022/03/11 09:51:36;;;;;;;21.90;13.20;;;12.70;48.70;;;;;;4998948;28;20031;-84
2022/03/11 09:54:03;;;;;;;22.08;13.35;;;12.80;49.50;;;;;;4995183;28;20045;-85
2022/03/11 09:56:29;;;;;;;24.48;13.85;;;12.90;48.70;;;;;;5000897;28;20089;-84
2022/03/11 09:58:55;;;;;;;23.38;13.55;;;13.00;48.10;;;;;;5006126;28;20393;-78
2022/03/11 10:01:21;;;;;;;22.42;14.48;;;13.00;48.00;;;;;;4995142;28;20038;-85
2022/03/11 10:03:47;;;;;;;21.60;12.98;;;13.10;47.90;;;;;;4996664;28;20470;-86
2022/03/11 10:06:12;;;;;;;25.50;14.18;;;13.10;47.30;;;;;;5002394;28;20026;-86
2022/03/11 10:08:40;;;;;;;22.10;13.70;;;13.10;47.50;;;;;;5006968;28;20034;-83
2022/03/11 10:11:25;;;;;;;25.02;14.38;;;13.10;47.70;;;;;;4994847;28;20098;-83
2022/03/11 10:13:52;;;;;;;22.70;14.00;;;13.30;48.70;;;;;;5000420;28;20061;-83
2022/03/11 10:16:23;;;;;;;23.13;13.70;;;13.50;48.70;;;;;;5000381;28;20026;-82
2022/03/11 10:19:21;;;;;;;21.63;13.00;;;13.60;47.80;;;;;;5004053;28;20108;-82
2022/03/11 10:21:48;;;;;;;24.38;14.13;;;13.60;47.40;;;;;;4994805;28;20560;-81
2022/03/11 10:24:15;;;;;;;22.52;13.52;;;13.70;47.60;;;;;;5010218;28;20473;-82
2022/03/11 10:26:49;;;;;;;20.75;14.05;;;13.80;46.90;;;;;;5003316;28;20041;-85
2022/03/11 10:29:16;;;;;;;24.25;14.38;;;13.80;46.70;;;;;;5004299;28;20489;-80
2022/03/11 10:31:43;;;;;;;24.02;13.40;;;13.80;47.10;;;;;;4997661;28;20026;-82
2022/03/11 10:34:20;;;;;;;22.55;13.88;;;14.00;47.50;;;;;;4996822;28;20037;-86
2022/03/11 10:36:50;;;;;;;20.45;13.85;;;14.10;46.80;;;;;;5013022;28;20026;-85
2022/03/11 10:39:18;;;;;;;21.92;14.18;;;14.10;46.30;;;;;;5013260;28;20041;-85
2022/03/11 10:41:46;;;;;;;18.98;12.70;;;14.10;46.10;;;;;;4999805;28;20030;-82
2022/03/11 10:44:12;;;;;;;19.42;13.40;;;14.20;46.20;;;;;;5003172;28;20032;-85
2022/03/11 10:46:39;;;;;;;20.27;13.65;;;14.30;46.70;;;;;;5001908;28;20022;-84
2022/03/11 10:49:04;;;;;;;21.55;13.55;;;14.40;46.30;;;;;;4995705;28;20551;-85
2022/03/11 10:51:33;;;;;;;20.23;14.30;;;14.50;46.40;;;;;;4996103;28;20030;-85
2022/03/11 10:54:00;;;;;;;19.77;12.65;;;14.50;46.20;;;;;;4993701;28;20474;-83
2022/03/11 10:56:44;;;;;;;23.67;14.27;;;14.50;46.10;;;;;;5002599;28;20022;-84
2022/03/11 10:59:21;;;;;;;17.98;12.95;;;14.60;46.20;;;;;;5003882;28;20034;-85
2022/03/11 11:01:50;;;;;;;20.35;14.35;;;14.70;46.70;;;;;;4993454;28;20022;-85
2022/03/11 11:04:17;;;;;;;24.38;13.35;;;14.90;46.40;;;;;;4994046;28;20257;-85
2022/03/11 11:06:43;;;;;;;22.58;13.65;;;14.90;46.50;;;;;;4990423;28;20023;-85
2022/03/11 11:09:11;;;;;;;24.67;14.57;;;15.10;47.10;;;;;;4993510;28;20035;-81
2022/03/11 11:11:37;;;;;;;22.75;13.02;;;15.10;45.60;;;;;;5006436;28;20014;-81
2022/03/11 11:14:05;;;;;;;22.13;12.90;;;15.20;45.70;;;;;;5011041;28;20474;-82
2022/03/11 11:16:46;;;;;;;22.92;14.55;;;15.10;44.80;;;;;;5009407;28;20056;-83
2022/03/11 11:19:14;;;;;;;22.95;13.82;;;15.20;45.20;;;;;;4999583;28;20478;-86
2022/03/11 11:21:48;;;;;;;20.58;12.82;;;15.30;45.80;;;;;;5007843;28;20040;-83
2022/03/11 11:24:16;;;;;;;19.48;13.40;;;15.40;44.80;;;;;;4996402;28;20105;-84
2022/03/11 11:26:46;;;;;;;25.42;14.13;;;15.50;45.10;;;;;;4996303;28;20383;-86
2022/03/11 11:29:12;;;;;;;21.55;14.10;;;15.60;45.10;;;;;;4998048;28;20042;-83
2022/03/11 11:31:42;;;;;;;26.75;13.23;;;15.60;45.50;;;;;;5006451;28;20025;-86
2022/03/11 11:34:25;;;;;;;19.15;12.90;;;15.70;44.20;;;;;;4998926;28;20054;-83
2022/03/11 11:36:51;;;;;;;21.02;13.52;;;15.70;45.10;;;;;;4996759;28;20050;-86
2022/03/11 11:39:17;;;;;;;19.05;12.93;;;15.80;45.30;;;;;;5002264;28;20096;-84
2022/03/11 11:41:52;;;;;;;17.95;12.60;;;15.80;44.90;;;;;;4988812;28;20470;-83
2022/03/11 11:44:17;;;;;;;19.27;13.10;;;15.90;44.60;;;;;;4995912;28;20050;-82
2022/03/11 11:47:11;;;;;;;22.95;13.57;;;15.90;44.10;;;;;;5013715;28;20033;-81
2022/03/11 11:49:48;;;;;;;21.13;13.75;;;16.00;44.70;;;;;;5014389;28;20038;-83
2022/03/11 11:52:36;;;;;;;18.88;12.73;;;16.00;44.70;;;;;;4974524;28;20026;-83
2022/03/11 11:55:19;;;;;;;20.08;12.65;;;16.10;44.60;;;;;;4989091;28;20038;-87
2022/03/11 11:57:46;;;;;;;22.55;12.70;;;16.20;43.80;;;;;;4994004;28;20077;-86
2022/03/11 12:00:26;;;;;;;20.20;13.43;;;16.20;43.80;;;;;;4995721;28;20041;-84
2022/03/11 12:02:53;;;;;;;21.33;13.60;;;16.20;43.80;;;;;;4992071;28;20026;-86
2022/03/11 12:05:50;;;;;;;23.52;13.07;;;16.10;43.60;;;;;;5007142;28;20434;-85
2022/03/11 12:08:34;;;;;;;24.20;13.40;;;16.00;43.70;;;;;;5003019;28;20038;-87
2022/03/11 12:11:00;;;;;;;23.33;13.45;;;16.00;44.30;;;;;;4990284;28;20433;-87
2022/03/11 12:13:37;;;;;;;21.67;13.70;;;16.20;46.20;;;;;;4996272;28;20483;-85
2022/03/11 12:16:04;;;;;;;21.58;13.98;;;16.30;44.30;;;;;;4994771;28;20049;-86
2022/03/11 12:18:42;;;;;;;18.50;13.88;;;16.40;45.20;;;;;;4995873;28;20019;-86
2022/03/11 12:21:25;;;;;;;19.00;12.85;;;16.60;44.90;;;;;;4995103;28;20029;-83
2022/03/11 12:23:51;;;;;;;21.42;14.32;;;16.70;43.70;;;;;;4994288;28;20022;-80
2022/03/11 12:26:16;;;;;;;20.50;13.65;;;16.90;44.40;;;;;;4994612;28;20481;-78
2022/03/11 12:28:44;;;;;;;18.25;13.27;;;17.00;43.00;;;;;;5006586;28;20392;-78
2022/03/11 12:31:10;;;;;;;22.33;13.57;;;17.10;43.10;;;;;;5006184;28;20120;-80
2022/03/11 12:33:47;;;;;;;19.83;13.35;;;17.10;43.00;;;;;;5013816;28;20030;-81
2022/03/11 12:36:18;;;;;;;20.05;12.55;;;17.10;42.40;;;;;;5002137;28;20097;-82